createdAt,value
2022-08-03T00:12:51.260Z,67.77
2022-08-03T00:42:54.227Z,68.85
2022-08-03T01:12:57.665Z,70.23
2022-08-03T01:43:00.919Z,70.53
2022-08-03T02:13:04.385Z,71.06
2022-08-03T02:43:07.353Z,71.39
2022-08-03T03:13:10.724Z,71.49
2022-08-03T03:43:13.545Z,71.55
2022-08-03T04:13:16.762Z,72.12
2022-08-03T04:43:20.526Z,72.54
2022-08-03T05:13:23.839Z,71.48
2022-08-03T05:43:26.552Z,70.46
2022-08-03T06:13:29.787Z,66.22
2022-08-03T06:43:35.925Z,63.65
2022-08-03T07:13:39.131Z,61.18
2022-08-03T07:43:42.288Z,60.29
2022-08-03T08:13:45.976Z,57.81
2022-08-03T08:43:49.255Z,54.96
2022-08-03T09:13:52.802Z,51.96
2022-08-03T09:43:55.494Z,47.83
2022-08-03T10:14:01.506Z,44.22
2022-08-03T10:44:04.454Z,39.19
2022-08-03T11:14:08.311Z,36.50
2022-08-03T11:44:11.134Z,33.68
2022-08-03T12:14:49.050Z,32.45
2022-08-03T12:44:37.304Z,30.25
2022-08-03T13:14:40.586Z,29.07
2022-08-03T13:44:44.022Z,28.17
2022-08-03T14:14:47.852Z,27.03
2022-08-03T14:44:50.814Z,27.56
2022-08-03T15:14:54.193Z,27.66
2022-08-03T15:44:57.387Z,28.29
2022-08-03T16:15:00.714Z,29.01
2022-08-03T16:45:03.951Z,30.33
2022-08-03T17:15:07.247Z,32.15
2022-08-03T17:45:15.846Z,34.01
2022-08-03T18:15:21.203Z,36.61
2022-08-03T18:45:57.794Z,40.96
2022-08-03T19:15:51.362Z,43.32
2022-08-03T19:46:06.451Z,46.92
2022-08-03T20:16:11.010Z,48.83
2022-08-03T20:46:31.700Z,51.64
2022-08-03T21:16:38.417Z,53.59
2022-08-03T21:46:41.173Z,55.76
2022-08-03T22:16:44.868Z,58.33
2022-08-03T22:46:47.591Z,58.55
2022-08-03T23:16:51.209Z,59.45
2022-08-03T23:46:53.945Z,60.77
